sensor_id;sensor_type;location;lat;lon;timestamp;P1;durP1;ratioP1;P2;durP2;ratioP2
30048;SDS011;16879;50.852;15.602;2023-09-12T00:00:19;13.93;;;11.05;;
30048;SDS011;16879;50.852;15.602;2023-09-12T00:02:45;11.30;;;10.30;;
30048;SDS011;16879;50.852;15.602;2023-09-12T00:05:11;10.95;;;9.10;;
30048;SDS011;16879;50.852;15.602;2023-09-12T00:07:38;11.48;;;10.32;;
30048;SDS011;16879;50.852;15.602;2023-09-12T00:10:04;11.57;;;10.13;;
30048;SDS011;16879;50.852;15.602;2023-09-12T00:12:31;10.05;;;9.05;;
30048;SDS011;16879;50.852;15.602;2023-09-12T00:14:57;10.38;;;9.48;;
30048;SDS011;16879;50.852;15.602;2023-09-12T00:17:23;10.27;;;9.38;;
30048;SDS011;16879;50.852;15.602;2023-09-12T00:19:48;10.95;;;9.82;;
30048;SDS011;16879;50.852;15.602;2023-09-12T00:22:15;11.05;;;10.05;;
30048;SDS011;16879;50.852;15.602;2023-09-12T00:24:40;12.23;;;10.98;;
30048;SDS011;16879;50.852;15.602;2023-09-12T00:27:07;11.57;;;10.52;;
30048;SDS011;16879;50.852;15.602;2023-09-12T00:29:33;9.73;;;8.73;;
30048;SDS011;16879;50.852;15.602;2023-09-12T00:31:59;10.95;;;9.90;;
30048;SDS011;16879;50.852;15.602;2023-09-12T00:34:24;10.95;;;9.95;;
30048;SDS011;16879;50.852;15.602;2023-09-12T00:36:51;12.48;;;11.25;;
30048;SDS011;16879;50.852;15.602;2023-09-12T00:39:17;13.68;;;12.27;;
30048;SDS011;16879;50.852;15.602;2023-09-12T00:41:43;14.18;;;12.20;;
30048;SDS011;16879;50.852;15.602;2023-09-12T00:44:09;13.45;;;12.10;;
30048;SDS011;16879;50.852;15.602;2023-09-12T00:46:35;16.52;;;14.77;;
30048;SDS011;16879;50.852;15.602;2023-09-12T00:49:03;13.63;;;11.70;;
30048;SDS011;16879;50.852;15.602;2023-09-12T00:51:31;13.05;;;11.68;;
30048;SDS011;16879;50.852;15.602;2023-09-12T00:54:00;14.02;;;12.68;;
30048;SDS011;16879;50.852;15.602;2023-09-12T00:56:26;12.35;;;11.15;;
30048;SDS011;16879;50.852;15.602;2023-09-12T00:58:52;14.18;;;12.80;;
30048;SDS011;16879;50.852;15.602;2023-09-12T01:01:18;13.40;;;12.20;;
30048;SDS011;16879;50.852;15.602;2023-09-12T01:03:45;16.83;;;15.05;;
30048;SDS011;16879;50.852;15.602;2023-09-12T01:06:11;14.80;;;13.30;;
30048;SDS011;16879;50.852;15.602;2023-09-12T01:08:39;13.98;;;12.68;;
30048;SDS011;16879;50.852;15.602;2023-09-12T01:11:05;16.55;;;12.70;;
30048;SDS011;16879;50.852;15.602;2023-09-12T01:13:32;12.48;;;11.18;;
30048;SDS011;16879;50.852;15.602;2023-09-12T01:15:57;15.70;;;12.60;;
30048;SDS011;16879;50.852;15.602;2023-09-12T01:18:23;19.13;;;14.05;;
30048;SDS011;16879;50.852;15.602;2023-09-12T01:21:04;16.85;;;13.73;;
30048;SDS011;16879;50.852;15.602;2023-09-12T01:29:42;13.95;;;12.52;;
30048;SDS011;16879;50.852;15.602;2023-09-12T01:32:11;11.32;;;10.23;;
30048;SDS011;16879;50.852;15.602;2023-09-12T01:34:39;12.93;;;11.63;;
30048;SDS011;16879;50.852;15.602;2023-09-12T01:37:05;14.90;;;13.40;;
30048;SDS011;16879;50.852;15.602;2023-09-12T01:39:31;14.35;;;12.88;;
30048;SDS011;16879;50.852;15.602;2023-09-12T01:41:57;13.68;;;12.20;;
30048;SDS011;16879;50.852;15.602;2023-09-12T01:44:25;14.00;;;12.68;;
30048;SDS011;16879;50.852;15.602;2023-09-12T01:46:53;14.00;;;11.13;;
30048;SDS011;16879;50.852;15.602;2023-09-12T01:49:21;13.63;;;12.20;;
30048;SDS011;16879;50.852;15.602;2023-09-12T01:51:50;14.40;;;12.80;;
30048;SDS011;16879;50.852;15.602;2023-09-12T01:54:17;13.65;;;12.25;;
30048;SDS011;16879;50.852;15.602;2023-09-12T01:56:44;13.65;;;12.38;;
30048;SDS011;16879;50.852;15.602;2023-09-12T01:59:11;15.82;;;12.57;;
30048;SDS011;16879;50.852;15.602;2023-09-12T02:01:37;14.43;;;13.05;;
30048;SDS011;16879;50.852;15.602;2023-09-12T02:04:03;13.38;;;11.82;;
30048;SDS011;16879;50.852;15.602;2023-09-12T02:06:33;13.35;;;12.05;;
30048;SDS011;16879;50.852;15.602;2023-09-12T02:09:00;17.98;;;13.02;;
30048;SDS011;16879;50.852;15.602;2023-09-12T02:11:27;12.63;;;11.43;;
30048;SDS011;16879;50.852;15.602;2023-09-12T02:13:53;14.07;;;12.63;;
30048;SDS011;16879;50.852;15.602;2023-09-12T02:16:19;13.43;;;11.90;;
30048;SDS011;16879;50.852;15.602;2023-09-12T02:18:44;13.35;;;11.00;;
30048;SDS011;16879;50.852;15.602;2023-09-12T02:21:11;14.57;;;13.15;;
30048;SDS011;16879;50.852;15.602;2023-09-12T02:23:37;13.98;;;12.10;;
30048;SDS011;16879;50.852;15.602;2023-09-12T02:26:03;12.77;;;11.48;;
30048;SDS011;16879;50.852;15.602;2023-09-12T02:28:29;16.73;;;13.80;;
30048;SDS011;16879;50.852;15.602;2023-09-12T02:30:54;11.35;;;10.10;;
30048;SDS011;16879;50.852;15.602;2023-09-12T02:33:21;12.30;;;11.00;;
30048;SDS011;16879;50.852;15.602;2023-09-12T02:35:47;11.10;;;10.00;;
30048;SDS011;16879;50.852;15.602;2023-09-12T02:38:13;12.85;;;11.48;;
30048;SDS011;16879;50.852;15.602;2023-09-12T02:40:39;12.50;;;11.27;;
30048;SDS011;16879;50.852;15.602;2023-09-12T02:43:05;15.68;;;13.20;;
30048;SDS011;16879;50.852;15.602;2023-09-12T02:45:31;14.80;;;13.25;;
30048;SDS011;16879;50.852;15.602;2023-09-12T02:47:57;12.20;;;11.00;;
30048;SDS011;16879;50.852;15.602;2023-09-12T02:50:23;13.63;;;12.30;;
30048;SDS011;16879;50.852;15.602;2023-09-12T02:52:48;15.88;;;14.05;;
30048;SDS011;16879;50.852;15.602;2023-09-12T02:55:15;14.90;;;13.40;;
30048;SDS011;16879;50.852;15.602;2023-09-12T02:57:41;13.65;;;11.65;;
30048;SDS011;16879;50.852;15.602;2023-09-12T03:00:07;13.65;;;11.65;;
30048;SDS011;16879;50.852;15.602;2023-09-12T03:02:34;14.77;;;12.60;;
30048;SDS011;16879;50.852;15.602;2023-09-12T03:05:00;12.10;;;10.95;;
30048;SDS011;16879;50.852;15.602;2023-09-12T03:07:29;11.63;;;10.52;;
30048;SDS011;16879;50.852;15.602;2023-09-12T03:09:55;12.02;;;10.82;;
30048;SDS011;16879;50.852;15.602;2023-09-12T03:12:21;11.98;;;10.73;;
30048;SDS011;16879;50.852;15.602;2023-09-12T03:14:47;13.18;;;11.90;;
30048;SDS011;16879;50.852;15.602;2023-09-12T03:17:13;13.80;;;12.30;;
30048;SDS011;16879;50.852;15.602;2023-09-12T03:19:39;13.50;;;12.20;;
30048;SDS011;16879;50.852;15.602;2023-09-12T03:22:05;13.38;;;12.10;;
30048;SDS011;16879;50.852;15.602;2023-09-12T03:24:31;13.10;;;11.70;;
30048;SDS011;16879;50.852;15.602;2023-09-12T03:26:57;11.88;;;10.73;;
30048;SDS011;16879;50.852;15.602;2023-09-12T03:29:23;13.15;;;11.85;;
30048;SDS011;16879;50.852;15.602;2023-09-12T03:31:48;19.35;;;14.13;;
30048;SDS011;16879;50.852;15.602;2023-09-12T03:34:14;16.13;;;14.57;;
30048;SDS011;16879;50.852;15.602;2023-09-12T03:36:40;14.48;;;12.95;;
30048;SDS011;16879;50.852;15.602;2023-09-12T03:39:06;12.85;;;11.55;;
30048;SDS011;16879;50.852;15.602;2023-09-12T03:41:34;13.50;;;11.77;;
30048;SDS011;16879;50.852;15.602;2023-09-12T03:44:00;13.82;;;12.50;;
30048;SDS011;16879;50.852;15.602;2023-09-12T03:46:26;13.27;;;11.93;;
30048;SDS011;16879;50.852;15.602;2023-09-12T03:48:52;10.90;;;9.75;;
30048;SDS011;16879;50.852;15.602;2023-09-12T03:51:17;11.00;;;9.93;;
30048;SDS011;16879;50.852;15.602;2023-09-12T03:53:43;10.98;;;9.80;;
30048;SDS011;16879;50.852;15.602;2023-09-12T03:56:09;11.13;;;10.02;;
30048;SDS011;16879;50.852;15.602;2023-09-12T03:58:39;11.52;;;10.27;;
30048;SDS011;16879;50.852;15.602;2023-09-12T04:01:05;8.95;;;8.15;;
30048;SDS011;16879;50.852;15.602;2023-09-12T04:03:31;10.60;;;9.65;;
30048;SDS011;16879;50.852;15.602;2023-09-12T04:05:57;10.73;;;9.73;;
30048;SDS011;16879;50.852;15.602;2023-09-12T04:08:23;12.95;;;10.68;;
30048;SDS011;16879;50.852;15.602;2023-09-12T04:10:49;10.55;;;9.55;;
30048;SDS011;16879;50.852;15.602;2023-09-12T04:13:15;10.55;;;9.57;;
30048;SDS011;16879;50.852;15.602;2023-09-12T04:15:41;12.75;;;10.70;;
30048;SDS011;16879;50.852;15.602;2023-09-12T04:18:07;12.32;;;11.13;;
30048;SDS011;16879;50.852;15.602;2023-09-12T04:20:33;11.00;;;9.90;;
30048;SDS011;16879;50.852;15.602;2023-09-12T04:23:02;10.43;;;9.43;;
30048;SDS011;16879;50.852;15.602;2023-09-12T04:25:29;12.40;;;11.07;;
30048;SDS011;16879;50.852;15.602;2023-09-12T04:27:55;11.85;;;10.75;;
30048;SDS011;16879;50.852;15.602;2023-09-12T04:30:21;10.70;;;9.60;;
30048;SDS011;16879;50.852;15.602;2023-09-12T04:32:47;12.07;;;10.88;;
30048;SDS011;16879;50.852;15.602;2023-09-12T04:35:13;11.20;;;10.05;;
30048;SDS011;16879;50.852;15.602;2023-09-12T04:37:39;12.40;;;9.77;;
30048;SDS011;16879;50.852;15.602;2023-09-12T04:40:06;13.27;;;12.07;;
30048;SDS011;16879;50.852;15.602;2023-09-12T04:42:32;10.63;;;9.57;;
30048;SDS011;16879;50.852;15.602;2023-09-12T04:44:58;11.18;;;10.07;;
30048;SDS011;16879;50.852;15.602;2023-09-12T04:47:24;10.38;;;9.45;;
30048;SDS011;16879;50.852;15.602;2023-09-12T04:49:50;14.63;;;11.15;;
30048;SDS011;16879;50.852;15.602;2023-09-12T04:52:17;11.10;;;10.10;;
30048;SDS011;16879;50.852;15.602;2023-09-12T04:54:43;11.23;;;10.15;;
30048;SDS011;16879;50.852;15.602;2023-09-12T04:57:09;11.32;;;10.32;;
30048;SDS011;16879;50.852;15.602;2023-09-12T04:59:35;13.23;;;11.93;;
30048;SDS011;16879;50.852;15.602;2023-09-12T05:02:01;11.18;;;10.18;;
30048;SDS011;16879;50.852;15.602;2023-09-12T05:04:27;9.95;;;9.15;;
30048;SDS011;16879;50.852;15.602;2023-09-12T05:06:53;10.52;;;9.52;;
30048;SDS011;16879;50.852;15.602;2023-09-12T05:09:19;9.88;;;9.05;;
30048;SDS011;16879;50.852;15.602;2023-09-12T05:11:46;9.70;;;8.73;;
30048;SDS011;16879;50.852;15.602;2023-09-12T05:14:11;10.57;;;9.68;;
30048;SDS011;16879;50.852;15.602;2023-09-12T05:16:37;11.13;;;10.23;;
30048;SDS011;16879;50.852;15.602;2023-09-12T05:19:03;10.07;;;9.07;;
30048;SDS011;16879;50.852;15.602;2023-09-12T05:21:29;8.65;;;7.85;;
30048;SDS011;16879;50.852;15.602;2023-09-12T05:23:55;7.82;;;7.15;;
30048;SDS011;16879;50.852;15.602;2023-09-12T05:26:21;7.15;;;6.65;;
30048;SDS011;16879;50.852;15.602;2023-09-12T05:28:47;8.95;;;8.25;;
30048;SDS011;16879;50.852;15.602;2023-09-12T05:31:13;7.60;;;7.07;;
30048;SDS011;16879;50.852;15.602;2023-09-12T05:33:39;12.02;;;11.02;;
30048;SDS011;16879;50.852;15.602;2023-09-12T05:36:05;8.75;;;7.97;;
30048;SDS011;16879;50.852;15.602;2023-09-12T05:38:31;15.75;;;12.90;;
30048;SDS011;16879;50.852;15.602;2023-09-12T05:40:57;15.05;;;13.60;;
30048;SDS011;16879;50.852;15.602;2023-09-12T05:43:23;21.00;;;18.73;;
30048;SDS011;16879;50.852;15.602;2023-09-12T05:45:49;20.95;;;17.75;;
30048;SDS011;16879;50.852;15.602;2023-09-12T05:48:14;31.23;;;23.13;;
30048;SDS011;16879;50.852;15.602;2023-09-12T05:50:41;58.88;;;35.90;;
30048;SDS011;16879;50.852;15.602;2023-09-12T05:53:07;60.65;;;36.65;;
30048;SDS011;16879;50.852;15.602;2023-09-12T05:55:33;37.88;;;25.40;;
30048;SDS011;16879;50.852;15.602;2023-09-12T05:57:59;30.88;;;21.60;;
30048;SDS011;16879;50.852;15.602;2023-09-12T06:00:25;26.95;;;20.20;;
30048;SDS011;16879;50.852;15.602;2023-09-12T06:02:51;25.67;;;22.90;;
30048;SDS011;16879;50.852;15.602;2023-09-12T06:05:17;23.05;;;19.23;;
30048;SDS011;16879;50.852;15.602;2023-09-12T06:07:43;19.98;;;17.05;;
30048;SDS011;16879;50.852;15.602;2023-09-12T06:10:09;19.02;;;16.20;;
30048;SDS011;16879;50.852;15.602;2023-09-12T06:12:35;17.88;;;15.48;;
30048;SDS011;16879;50.852;15.602;2023-09-12T06:15:01;17.70;;;14.50;;
30048;SDS011;16879;50.852;15.602;2023-09-12T06:17:30;16.60;;;15.00;;
30048;SDS011;16879;50.852;15.602;2023-09-12T06:19:57;18.05;;;15.95;;
30048;SDS011;16879;50.852;15.602;2023-09-12T06:22:23;23.23;;;18.10;;
30048;SDS011;16879;50.852;15.602;2023-09-12T06:24:52;17.42;;;15.68;;
30048;SDS011;16879;50.852;15.602;2023-09-12T06:27:18;17.50;;;15.65;;
30048;SDS011;16879;50.852;15.602;2023-09-12T06:29:44;13.88;;;12.55;;
30048;SDS011;16879;50.852;15.602;2023-09-12T06:32:13;17.88;;;15.63;;
30048;SDS011;16879;50.852;15.602;2023-09-12T06:34:39;18.92;;;17.02;;
30048;SDS011;16879;50.852;15.602;2023-09-12T06:37:05;18.17;;;15.13;;
30048;SDS011;16879;50.852;15.602;2023-09-12T06:39:31;18.42;;;16.58;;
30048;SDS011;16879;50.852;15.602;2023-09-12T06:41:57;20.58;;;18.65;;
30048;SDS011;16879;50.852;15.602;2023-09-12T06:44:23;18.25;;;16.08;;
30048;SDS011;16879;50.852;15.602;2023-09-12T06:46:49;19.20;;;17.20;;
30048;SDS011;16879;50.852;15.602;2023-09-12T06:49:15;17.17;;;15.50;;
30048;SDS011;16879;50.852;15.602;2023-09-12T06:51:41;20.40;;;18.30;;
30048;SDS011;16879;50.852;15.602;2023-09-12T06:54:07;20.13;;;16.98;;
30048;SDS011;16879;50.852;15.602;2023-09-12T06:56:33;14.10;;;12.68;;
30048;SDS011;16879;50.852;15.602;2023-09-12T06:59:05;18.13;;;16.23;;
30048;SDS011;16879;50.852;15.602;2023-09-12T07:01:32;19.05;;;16.67;;
30048;SDS011;16879;50.852;15.602;2023-09-12T07:03:57;15.75;;;14.13;;
30048;SDS011;16879;50.852;15.602;2023-09-12T07:06:23;15.50;;;13.95;;
30048;SDS011;16879;50.852;15.602;2023-09-12T07:08:49;14.93;;;13.43;;
30048;SDS011;16879;50.852;15.602;2023-09-12T07:11:16;16.60;;;14.93;;
30048;SDS011;16879;50.852;15.602;2023-09-12T07:13:44;15.50;;;14.00;;
30048;SDS011;16879;50.852;15.602;2023-09-12T07:16:10;15.77;;;13.77;;
30048;SDS011;16879;50.852;15.602;2023-09-12T07:18:37;18.05;;;16.15;;
30048;SDS011;16879;50.852;15.602;2023-09-12T07:21:03;14.35;;;12.93;;
30048;SDS011;16879;50.852;15.602;2023-09-12T07:23:30;16.63;;;15.05;;
30048;SDS011;16879;50.852;15.602;2023-09-12T07:25:57;20.35;;;17.67;;
30048;SDS011;16879;50.852;15.602;2023-09-12T07:28:24;15.30;;;13.80;;
30048;SDS011;16879;50.852;15.602;2023-09-12T07:30:56;14.75;;;12.20;;
30048;SDS011;16879;50.852;15.602;2023-09-12T07:33:22;15.48;;;12.77;;
30048;SDS011;16879;50.852;15.602;2023-09-12T07:35:48;14.95;;;13.15;;
30048;SDS011;16879;50.852;15.602;2023-09-12T07:38:18;15.07;;;13.48;;
30048;SDS011;16879;50.852;15.602;2023-09-12T07:40:45;15.93;;;14.38;;
30048;SDS011;16879;50.852;15.602;2023-09-12T07:43:11;14.50;;;13.00;;
30048;SDS011;16879;50.852;15.602;2023-09-12T07:45:37;13.40;;;12.00;;
30048;SDS011;16879;50.852;15.602;2023-09-12T07:48:06;14.32;;;12.25;;
30048;SDS011;16879;50.852;15.602;2023-09-12T07:50:33;13.15;;;11.75;;
30048;SDS011;16879;50.852;15.602;2023-09-12T07:52:59;12.77;;;11.30;;
30048;SDS011;16879;50.852;15.602;2023-09-12T07:55:25;12.43;;;11.25;;
30048;SDS011;16879;50.852;15.602;2023-09-12T07:57:55;16.27;;;13.77;;
30048;SDS011;16879;50.852;15.602;2023-09-12T08:00:21;13.55;;;12.15;;
30048;SDS011;16879;50.852;15.602;2023-09-12T08:02:47;13.55;;;12.30;;
30048;SDS011;16879;50.852;15.602;2023-09-12T08:05:13;11.98;;;10.75;;
30048;SDS011;16879;50.852;15.602;2023-09-12T08:07:39;13.63;;;12.23;;
30048;SDS011;16879;50.852;15.602;2023-09-12T08:10:05;14.93;;;13.43;;
30048;SDS011;16879;50.852;15.602;2023-09-12T08:12:32;13.85;;;12.02;;
30048;SDS011;16879;50.852;15.602;2023-09-12T08:14:57;12.52;;;11.45;;
30048;SDS011;16879;50.852;15.602;2023-09-12T08:17:25;11.40;;;10.40;;
30048;SDS011;16879;50.852;15.602;2023-09-12T08:19:51;13.20;;;11.98;;
30048;SDS011;16879;50.852;15.602;2023-09-12T08:22:17;13.38;;;11.98;;
30048;SDS011;16879;50.852;15.602;2023-09-12T08:24:44;12.93;;;11.65;;
30048;SDS011;16879;50.852;15.602;2023-09-12T08:27:09;11.95;;;10.82;;
30048;SDS011;16879;50.852;15.602;2023-09-12T08:29:35;16.30;;;13.35;;
30048;SDS011;16879;50.852;15.602;2023-09-12T08:32:01;14.07;;;12.70;;
30048;SDS011;16879;50.852;15.602;2023-09-12T08:34:28;12.95;;;11.75;;
30048;SDS011;16879;50.852;15.602;2023-09-12T08:36:54;16.95;;;12.43;;
30048;SDS011;16879;50.852;15.602;2023-09-12T08:39:26;13.73;;;12.30;;
30048;SDS011;16879;50.852;15.602;2023-09-12T08:41:53;13.15;;;11.85;;
30048;SDS011;16879;50.852;15.602;2023-09-12T08:44:19;12.10;;;10.88;;
30048;SDS011;16879;50.852;15.602;2023-09-12T08:46:46;12.38;;;10.82;;
30048;SDS011;16879;50.852;15.602;2023-09-12T08:49:12;12.70;;;11.50;;
30048;SDS011;16879;50.852;15.602;2023-09-12T08:51:38;12.18;;;11.07;;
30048;SDS011;16879;50.852;15.602;2023-09-12T08:54:05;13.23;;;11.88;;
30048;SDS011;16879;50.852;15.602;2023-09-12T08:56:32;12.57;;;11.48;;
30048;SDS011;16879;50.852;15.602;2023-09-12T08:59:00;12.50;;;11.40;;
30048;SDS011;16879;50.852;15.602;2023-09-12T09:01:27;12.00;;;10.90;;
30048;SDS011;16879;50.852;15.602;2023-09-12T09:03:56;11.40;;;10.48;;
30048;SDS011;16879;50.852;15.602;2023-09-12T09:06:23;11.68;;;10.48;;
30048;SDS011;16879;50.852;15.602;2023-09-12T09:08:50;13.55;;;12.30;;
30048;SDS011;16879;50.852;15.602;2023-09-12T09:11:16;11.23;;;10.23;;
30048;SDS011;16879;50.852;15.602;2023-09-12T09:13:42;10.82;;;9.85;;
30048;SDS011;16879;50.852;15.602;2023-09-12T09:16:15;10.68;;;9.55;;
30048;SDS011;16879;50.852;15.602;2023-09-12T09:18:50;11.73;;;10.30;;
30048;SDS011;16879;50.852;15.602;2023-09-12T09:21:21;11.30;;;10.25;;
30048;SDS011;16879;50.852;15.602;2023-09-12T09:23:52;11.48;;;10.43;;
30048;SDS011;16879;50.852;15.602;2023-09-12T09:26:19;11.18;;;10.25;;
30048;SDS011;16879;50.852;15.602;2023-09-12T09:28:45;12.65;;;10.90;;
30048;SDS011;16879;50.852;15.602;2023-09-12T09:31:12;23.73;;;16.77;;
30048;SDS011;16879;50.852;15.602;2023-09-12T09:33:41;12.05;;;10.80;;
30048;SDS011;16879;50.852;15.602;2023-09-12T09:36:16;12.10;;;11.00;;
30048;SDS011;16879;50.852;15.602;2023-09-12T09:38:42;18.13;;;13.75;;
30048;SDS011;16879;50.852;15.602;2023-09-12T09:41:08;13.48;;;10.50;;
30048;SDS011;16879;50.852;15.602;2023-09-12T09:43:35;14.10;;;12.23;;
30048;SDS011;16879;50.852;15.602;2023-09-12T09:46:01;16.17;;;13.32;;
30048;SDS011;16879;50.852;15.602;2023-09-12T09:48:28;14.45;;;12.00;;
30048;SDS011;16879;50.852;15.602;2023-09-12T09:51:02;14.93;;;11.10;;
30048;SDS011;16879;50.852;15.602;2023-09-12T09:53:29;10.48;;;9.65;;
30048;SDS011;16879;50.852;15.602;2023-09-12T09:56:15;10.70;;;9.63;;
30048;SDS011;16879;50.852;15.602;2023-09-12T09:58:52;11.20;;;10.23;;
30048;SDS011;16879;50.852;15.602;2023-09-12T10:01:20;11.73;;;10.63;;
30048;SDS011;16879;50.852;15.602;2023-09-12T10:03:55;10.90;;;9.73;;
30048;SDS011;16879;50.852;15.602;2023-09-12T10:06:24;11.82;;;10.63;;
30048;SDS011;16879;50.852;15.602;2023-09-12T10:08:52;12.40;;;10.13;;
30048;SDS011;16879;50.852;15.602;2023-09-12T10:11:19;9.93;;;8.93;;
30048;SDS011;16879;50.852;15.602;2023-09-12T10:13:53;10.13;;;9.23;;
30048;SDS011;16879;50.852;15.602;2023-09-12T10:16:23;11.75;;;10.55;;
30048;SDS011;16879;50.852;15.602;2023-09-12T10:18:57;10.35;;;9.45;;
30048;SDS011;16879;50.852;15.602;2023-09-12T10:21:46;10.57;;;9.68;;
30048;SDS011;16879;50.852;15.602;2023-09-12T10:24:32;11.43;;;10.25;;
30048;SDS011;16879;50.852;15.602;2023-09-12T10:27:00;11.68;;;10.63;;
30048;SDS011;16879;50.852;15.602;2023-09-12T10:29:27;12.27;;;10.05;;
30048;SDS011;16879;50.852;15.602;2023-09-12T10:31:53;10.68;;;9.68;;
30048;SDS011;16879;50.852;15.602;2023-09-12T10:34:20;10.43;;;9.50;;
30048;SDS011;16879;50.852;15.602;2023-09-12T10:36:48;10.55;;;9.70;;
30048;SDS011;16879;50.852;15.602;2023-09-12T10:39:14;12.38;;;9.77;;
30048;SDS011;16879;50.852;15.602;2023-09-12T10:41:41;11.55;;;10.35;;
30048;SDS011;16879;50.852;15.602;2023-09-12T10:44:11;14.15;;;10.65;;
30048;SDS011;16879;50.852;15.602;2023-09-12T10:46:41;12.27;;;10.85;;
30048;SDS011;16879;50.852;15.602;2023-09-12T10:49:08;17.55;;;10.88;;
30048;SDS011;16879;50.852;15.602;2023-09-12T10:51:39;10.98;;;9.88;;
30048;SDS011;16879;50.852;15.602;2023-09-12T10:54:13;10.73;;;8.80;;
30048;SDS011;16879;50.852;15.602;2023-09-12T10:56:41;11.57;;;9.85;;
30048;SDS011;16879;50.852;15.602;2023-09-12T10:59:09;10.95;;;8.82;;
30048;SDS011;16879;50.852;15.602;2023-09-12T11:01:37;10.52;;;9.60;;
30048;SDS011;16879;50.852;15.602;2023-09-12T11:06:48;12.77;;;9.82;;
30048;SDS011;16879;50.852;15.602;2023-09-12T11:09:21;9.93;;;8.85;;
30048;SDS011;16879;50.852;15.602;2023-09-12T11:12:04;9.43;;;8.63;;
30048;SDS011;16879;50.852;15.602;2023-09-12T11:14:32;9.68;;;8.75;;
30048;SDS011;16879;50.852;15.602;2023-09-12T11:19:45;9.48;;;8.57;;
30048;SDS011;16879;50.852;15.602;2023-09-12T11:22:21;8.63;;;7.82;;
30048;SDS011;16879;50.852;15.602;2023-09-12T11:24:51;8.90;;;8.10;;
30048;SDS011;16879;50.852;15.602;2023-09-12T11:27:17;9.40;;;8.57;;
30048;SDS011;16879;50.852;15.602;2023-09-12T11:29:43;9.23;;;8.15;;
30048;SDS011;16879;50.852;15.602;2023-09-12T11:32:10;9.13;;;8.23;;
30048;SDS011;16879;50.852;15.602;2023-09-12T11:34:57;9.48;;;8.68;;
30048;SDS011;16879;50.852;15.602;2023-09-12T11:37:29;9.40;;;8.57;;
30048;SDS011;16879;50.852;15.602;2023-09-12T11:39:55;9.73;;;8.85;;
30048;SDS011;16879;50.852;15.602;2023-09-12T11:42:22;10.32;;;8.65;;
30048;SDS011;16879;50.852;15.602;2023-09-12T11:44:50;9.68;;;8.65;;
30048;SDS011;16879;50.852;15.602;2023-09-12T11:47:17;10.25;;;9.25;;
30048;SDS011;16879;50.852;15.602;2023-09-12T11:49:43;9.57;;;8.50;;
30048;SDS011;16879;50.852;15.602;2023-09-12T11:52:10;10.50;;;9.05;;
30048;SDS011;16879;50.852;15.602;2023-09-12T11:54:44;10.30;;;9.30;;
30048;SDS011;16879;50.852;15.602;2023-09-12T11:57:14;8.90;;;8.20;;
30048;SDS011;16879;50.852;15.602;2023-09-12T11:59:41;10.23;;;9.23;;
30048;SDS011;16879;50.852;15.602;2023-09-12T12:02:13;10.35;;;8.93;;
30048;SDS011;16879;50.852;15.602;2023-09-12T12:04:39;10.02;;;9.13;;
30048;SDS011;16879;50.852;15.602;2023-09-12T12:07:06;9.32;;;8.52;;
30048;SDS011;16879;50.852;15.602;2023-09-12T12:09:33;9.93;;;9.02;;
30048;SDS011;16879;50.852;15.602;2023-09-12T12:14:34;9.88;;;8.98;;
30048;SDS011;16879;50.852;15.602;2023-09-12T12:17:08;10.38;;;9.48;;
30048;SDS011;16879;50.852;15.602;2023-09-12T12:19:35;11.10;;;9.90;;
30048;SDS011;16879;50.852;15.602;2023-09-12T12:22:07;10.77;;;9.77;;
30048;SDS011;16879;50.852;15.602;2023-09-12T12:24:38;10.57;;;9.60;;
30048;SDS011;16879;50.852;15.602;2023-09-12T12:27:09;9.52;;;8.70;;
30048;SDS011;16879;50.852;15.602;2023-09-12T12:29:36;10.88;;;9.98;;
30048;SDS011;16879;50.852;15.602;2023-09-12T12:32:04;10.73;;;9.65;;
30048;SDS011;16879;50.852;15.602;2023-09-12T12:34:31;10.77;;;9.77;;
30048;SDS011;16879;50.852;15.602;2023-09-12T12:36:57;14.40;;;9.50;;
30048;SDS011;16879;50.852;15.602;2023-09-12T12:39:23;10.80;;;9.80;;
30048;SDS011;16879;50.852;15.602;2023-09-12T12:41:51;10.55;;;9.13;;
30048;SDS011;16879;50.852;15.602;2023-09-12T12:44:18;9.88;;;8.82;;
30048;SDS011;16879;50.852;15.602;2023-09-12T12:46:51;10.23;;;9.43;;
30048;SDS011;16879;50.852;15.602;2023-09-12T12:49:18;11.32;;;8.35;;
30048;SDS011;16879;50.852;15.602;2023-09-12T12:51:45;10.35;;;9.32;;
30048;SDS011;16879;50.852;15.602;2023-09-12T12:54:12;9.73;;;8.93;;
30048;SDS011;16879;50.852;15.602;2023-09-12T12:56:38;10.90;;;9.75;;
30048;SDS011;16879;50.852;15.602;2023-09-12T12:59:05;11.13;;;10.13;;
30048;SDS011;16879;50.852;15.602;2023-09-12T13:01:34;10.70;;;9.70;;
30048;SDS011;16879;50.852;15.602;2023-09-12T13:04:01;10.43;;;9.35;;
30048;SDS011;16879;50.852;15.602;2023-09-12T13:06:27;11.48;;;10.05;;
30048;SDS011;16879;50.852;15.602;2023-09-12T13:08:55;10.98;;;9.93;;
30048;SDS011;16879;50.852;15.602;2023-09-12T13:11:26;11.98;;;10.60;;
30048;SDS011;16879;50.852;15.602;2023-09-12T13:13:52;14.43;;;10.73;;
30048;SDS011;16879;50.852;15.602;2023-09-12T13:16:18;20.90;;;10.98;;
30048;SDS011;16879;50.852;15.602;2023-09-12T13:18:44;16.60;;;11.25;;
30048;SDS011;16879;50.852;15.602;2023-09-12T13:21:10;12.75;;;11.18;;
30048;SDS011;16879;50.852;15.602;2023-09-12T13:23:36;11.55;;;10.55;;
30048;SDS011;16879;50.852;15.602;2023-09-12T13:26:03;11.88;;;10.43;;
30048;SDS011;16879;50.852;15.602;2023-09-12T13:28:31;12.63;;;10.35;;
30048;SDS011;16879;50.852;15.602;2023-09-12T13:30:57;11.82;;;10.55;;
30048;SDS011;16879;50.852;15.602;2023-09-12T13:33:23;14.52;;;11.25;;
30048;SDS011;16879;50.852;15.602;2023-09-12T13:35:49;12.32;;;10.90;;
30048;SDS011;16879;50.852;15.602;2023-09-12T13:38:16;10.57;;;9.63;;
30048;SDS011;16879;50.852;15.602;2023-09-12T13:40:44;11.20;;;10.30;;
30048;SDS011;16879;50.852;15.602;2023-09-12T13:43:11;10.85;;;9.95;;
30048;SDS011;16879;50.852;15.602;2023-09-12T13:45:37;12.85;;;10.20;;
30048;SDS011;16879;50.852;15.602;2023-09-12T13:48:03;12.50;;;11.05;;
30048;SDS011;16879;50.852;15.602;2023-09-12T13:50:30;12.07;;;10.35;;
30048;SDS011;16879;50.852;15.602;2023-09-12T13:53:00;11.30;;;10.18;;
30048;SDS011;16879;50.852;15.602;2023-09-12T13:55:34;10.15;;;9.25;;
30048;SDS011;16879;50.852;15.602;2023-09-12T13:58:04;12.00;;;10.95;;
30048;SDS011;16879;50.852;15.602;2023-09-12T14:00:31;10.98;;;9.98;;
30048;SDS011;16879;50.852;15.602;2023-09-12T14:02:58;12.82;;;11.50;;
30048;SDS011;16879;50.852;15.602;2023-09-12T14:05:24;11.73;;;10.63;;
30048;SDS011;16879;50.852;15.602;2023-09-12T14:07:50;10.73;;;9.73;;
30048;SDS011;16879;50.852;15.602;2023-09-12T14:10:16;10.82;;;9.95;;
30048;SDS011;16879;50.852;15.602;2023-09-12T14:12:43;10.98;;;9.98;;
30048;SDS011;16879;50.852;15.602;2023-09-12T14:15:12;13.07;;;9.77;;
30048;SDS011;16879;50.852;15.602;2023-09-12T14:17:41;12.73;;;9.77;;
30048;SDS011;16879;50.852;15.602;2023-09-12T14:20:08;11.50;;;9.93;;
30048;SDS011;16879;50.852;15.602;2023-09-12T14:22:36;10.93;;;10.00;;
30048;SDS011;16879;50.852;15.602;2023-09-12T14:25:02;11.57;;;10.45;;
30048;SDS011;16879;50.852;15.602;2023-09-12T14:27:28;11.55;;;10.55;;